Burton City, Ohio
Current Conditions -  °F | °C
As of 1:56 PM on Friday 28 Nov 2014 (Local Time) from KBJJ Reporting Station
Overcast Overcast  
Wind Chill: 18°   Ceiling: 2600
Heat Index: 26°   Visibility: 10mi
Dew Point: 18°   Wind: 8mph
Humidity: 71%   Direction: 210°SSW
Pressure: 30.24"   Gusts: NA
Location:  40.8369°N, 81.7632°W
Report Text: KBJJ 281856Z AUTO 21007KT 10SM OVC026 M03/M08 A3024 RMK AO2 SLP258 T10331078 TSNO
Loading
Personal Weather Stations






























Interactive Weather Map New forecast layout! Learn more

10-Day Weather Forecast

Advertisements
Track Severe Weather on mobile